sensor_id;sensor_type;location;lat;lon;timestamp;temperature;humidity
74294;DHT22;64044;59.904;10.738;2023-07-28T00:01:40;18.40;50.70
74294;DHT22;64044;59.904;10.738;2023-07-28T00:04:06;18.40;50.70
74294;DHT22;64044;59.904;10.738;2023-07-28T00:06:33;18.30;50.80
74294;DHT22;64044;59.904;10.738;2023-07-28T00:08:58;18.30;51.00
74294;DHT22;64044;59.904;10.738;2023-07-28T00:11:24;18.30;51.00
74294;DHT22;64044;59.904;10.738;2023-07-28T00:13:50;18.30;51.20
74294;DHT22;64044;59.904;10.738;2023-07-28T00:16:16;18.20;51.10
74294;DHT22;64044;59.904;10.738;2023-07-28T00:18:41;18.20;51.40
74294;DHT22;64044;59.904;10.738;2023-07-28T00:21:07;18.20;51.50
74294;DHT22;64044;59.904;10.738;2023-07-28T00:23:33;18.20;51.60
74294;DHT22;64044;59.904;10.738;2023-07-28T00:25:59;18.10;51.70
74294;DHT22;64044;59.904;10.738;2023-07-28T00:28:24;18.10;51.80
74294;DHT22;64044;59.904;10.738;2023-07-28T00:30:50;18.10;51.80
74294;DHT22;64044;59.904;10.738;2023-07-28T00:33:16;18.10;51.90
74294;DHT22;64044;59.904;10.738;2023-07-28T00:35:42;18.00;52.10
74294;DHT22;64044;59.904;10.738;2023-07-28T00:38:09;18.00;52.30
74294;DHT22;64044;59.904;10.738;2023-07-28T00:40:37;18.00;52.40
74294;DHT22;64044;59.904;10.738;2023-07-28T00:43:03;18.00;52.60
74294;DHT22;64044;59.904;10.738;2023-07-28T00:45:29;18.00;52.50
74294;DHT22;64044;59.904;10.738;2023-07-28T00:47:56;18.00;52.70
74294;DHT22;64044;59.904;10.738;2023-07-28T00:50:26;17.90;52.60
74294;DHT22;64044;59.904;10.738;2023-07-28T00:52:52;17.90;52.70
74294;DHT22;64044;59.904;10.738;2023-07-28T00:55:18;17.90;52.80
74294;DHT22;64044;59.904;10.738;2023-07-28T00:57:44;17.80;52.90
74294;DHT22;64044;59.904;10.738;2023-07-28T01:00:10;17.80;53.00
74294;DHT22;64044;59.904;10.738;2023-07-28T01:02:37;17.80;53.20
74294;DHT22;64044;59.904;10.738;2023-07-28T01:05:03;17.70;53.30
74294;DHT22;64044;59.904;10.738;2023-07-28T01:10:10;17.70;53.80
74294;DHT22;64044;59.904;10.738;2023-07-28T01:12:37;17.70;53.90
74294;DHT22;64044;59.904;10.738;2023-07-28T01:15:03;17.70;53.60
74294;DHT22;64044;59.904;10.738;2023-07-28T01:17:29;17.70;53.80
74294;DHT22;64044;59.904;10.738;2023-07-28T01:19:55;17.70;53.90
74294;DHT22;64044;59.904;10.738;2023-07-28T01:27:29;17.60;54.50
74294;DHT22;64044;59.904;10.738;2023-07-28T01:29:55;17.60;53.90
74294;DHT22;64044;59.904;10.738;2023-07-28T01:32:21;17.60;54.00
74294;DHT22;64044;59.904;10.738;2023-07-28T01:34:47;17.60;54.00
74294;DHT22;64044;59.904;10.738;2023-07-28T01:37:13;17.60;54.20
74294;DHT22;64044;59.904;10.738;2023-07-28T01:39:38;17.60;54.20
74294;DHT22;64044;59.904;10.738;2023-07-28T01:42:04;17.60;54.30
74294;DHT22;64044;59.904;10.738;2023-07-28T01:44:30;17.60;54.40
74294;DHT22;64044;59.904;10.738;2023-07-28T01:46:56;17.60;54.60
74294;DHT22;64044;59.904;10.738;2023-07-28T01:49:21;17.60;54.50
74294;DHT22;64044;59.904;10.738;2023-07-28T01:51:47;17.60;54.60
74294;DHT22;64044;59.904;10.738;2023-07-28T01:54:13;17.60;54.70
74294;DHT22;64044;59.904;10.738;2023-07-28T01:57:04;17.60;54.70
74294;DHT22;64044;59.904;10.738;2023-07-28T01:59:30;17.60;54.50
74294;DHT22;64044;59.904;10.738;2023-07-28T02:01:56;17.60;54.70
74294;DHT22;64044;59.904;10.738;2023-07-28T02:04:23;17.60;54.90
74294;DHT22;64044;59.904;10.738;2023-07-28T02:06:49;17.60;55.00
74294;DHT22;64044;59.904;10.738;2023-07-28T02:09:14;17.50;54.90
74294;DHT22;64044;59.904;10.738;2023-07-28T02:11:40;17.50;55.50
74294;DHT22;64044;59.904;10.738;2023-07-28T02:14:06;17.50;54.90
74294;DHT22;64044;59.904;10.738;2023-07-28T02:16:32;17.50;54.90
74294;DHT22;64044;59.904;10.738;2023-07-28T02:18:57;17.50;55.00
74294;DHT22;64044;59.904;10.738;2023-07-28T02:21:23;17.50;55.20
74294;DHT22;64044;59.904;10.738;2023-07-28T02:23:49;17.50;55.30
74294;DHT22;64044;59.904;10.738;2023-07-28T02:26:15;17.50;55.30
74294;DHT22;64044;59.904;10.738;2023-07-28T02:28:40;17.50;55.30
74294;DHT22;64044;59.904;10.738;2023-07-28T02:31:06;17.50;55.40
74294;DHT22;64044;59.904;10.738;2023-07-28T02:33:32;17.50;55.40
74294;DHT22;64044;59.904;10.738;2023-07-28T02:36:01;17.50;55.50
74294;DHT22;64044;59.904;10.738;2023-07-28T02:38:26;17.50;55.50
74294;DHT22;64044;59.904;10.738;2023-07-28T02:40:53;17.60;55.60
74294;DHT22;64044;59.904;10.738;2023-07-28T02:43:18;17.60;55.70
74294;DHT22;64044;59.904;10.738;2023-07-28T02:45:53;17.60;55.70
74294;DHT22;64044;59.904;10.738;2023-07-28T02:48:19;17.60;55.90
74294;DHT22;64044;59.904;10.738;2023-07-28T02:50:46;17.70;55.60
74294;DHT22;64044;59.904;10.738;2023-07-28T02:53:13;17.60;55.60
74294;DHT22;64044;59.904;10.738;2023-07-28T02:55:43;17.70;55.70
74294;DHT22;64044;59.904;10.738;2023-07-28T02:58:09;17.70;55.90
74294;DHT22;64044;59.904;10.738;2023-07-28T03:00:37;17.70;55.70
74294;DHT22;64044;59.904;10.738;2023-07-28T03:03:04;17.70;55.90
74294;DHT22;64044;59.904;10.738;2023-07-28T03:05:33;17.70;55.80
74294;DHT22;64044;59.904;10.738;2023-07-28T03:07:58;17.70;56.00
74294;DHT22;64044;59.904;10.738;2023-07-28T03:10:25;17.70;55.80
74294;DHT22;64044;59.904;10.738;2023-07-28T03:12:50;17.70;55.90
74294;DHT22;64044;59.904;10.738;2023-07-28T03:15:16;17.80;56.00
74294;DHT22;64044;59.904;10.738;2023-07-28T03:17:42;17.80;56.10
74294;DHT22;64044;59.904;10.738;2023-07-28T03:20:08;17.80;56.10
74294;DHT22;64044;59.904;10.738;2023-07-28T03:22:34;17.80;56.30
74294;DHT22;64044;59.904;10.738;2023-07-28T03:24:59;17.80;56.40
74294;DHT22;64044;59.904;10.738;2023-07-28T03:27:25;17.90;56.60
74294;DHT22;64044;59.904;10.738;2023-07-28T03:29:51;17.90;57.30
74294;DHT22;64044;59.904;10.738;2023-07-28T03:32:17;17.90;56.80
74294;DHT22;64044;59.904;10.738;2023-07-28T03:34:42;17.90;56.90
74294;DHT22;64044;59.904;10.738;2023-07-28T03:37:08;17.90;56.80
74294;DHT22;64044;59.904;10.738;2023-07-28T03:39:34;17.90;57.00
74294;DHT22;64044;59.904;10.738;2023-07-28T03:42:00;17.90;57.10
74294;DHT22;64044;59.904;10.738;2023-07-28T03:44:26;17.90;57.20
74294;DHT22;64044;59.904;10.738;2023-07-28T03:46:52;17.90;57.20
74294;DHT22;64044;59.904;10.738;2023-07-28T03:49:17;17.90;57.30
74294;DHT22;64044;59.904;10.738;2023-07-28T03:51:43;17.90;57.50
74294;DHT22;64044;59.904;10.738;2023-07-28T03:54:09;17.90;57.70
74294;DHT22;64044;59.904;10.738;2023-07-28T03:56:34;17.90;57.80
74294;DHT22;64044;59.904;10.738;2023-07-28T03:59:00;17.80;58.00
74294;DHT22;64044;59.904;10.738;2023-07-28T04:01:26;17.80;58.20
74294;DHT22;64044;59.904;10.738;2023-07-28T04:03:51;17.80;58.10
74294;DHT22;64044;59.904;10.738;2023-07-28T04:06:17;17.80;58.00
74294;DHT22;64044;59.904;10.738;2023-07-28T04:08:43;17.80;58.20
74294;DHT22;64044;59.904;10.738;2023-07-28T04:11:08;17.70;58.20
74294;DHT22;64044;59.904;10.738;2023-07-28T04:13:35;17.70;58.40
74294;DHT22;64044;59.904;10.738;2023-07-28T04:16:00;17.70;58.70
74294;DHT22;64044;59.904;10.738;2023-07-28T04:18:26;17.70;58.90
74294;DHT22;64044;59.904;10.738;2023-07-28T04:20:53;17.80;59.20
74294;DHT22;64044;59.904;10.738;2023-07-28T04:23:18;17.70;59.30
74294;DHT22;64044;59.904;10.738;2023-07-28T04:25:44;17.70;59.80
74294;DHT22;64044;59.904;10.738;2023-07-28T04:28:10;17.70;60.80
74294;DHT22;64044;59.904;10.738;2023-07-28T04:30:36;17.70;61.40
74294;DHT22;64044;59.904;10.738;2023-07-28T04:33:01;17.70;61.50
74294;DHT22;64044;59.904;10.738;2023-07-28T04:35:30;17.70;62.10
74294;DHT22;64044;59.904;10.738;2023-07-28T04:37:55;17.70;63.00
74294;DHT22;64044;59.904;10.738;2023-07-28T04:40:21;17.70;62.30
74294;DHT22;64044;59.904;10.738;2023-07-28T04:42:47;17.70;61.70
74294;DHT22;64044;59.904;10.738;2023-07-28T04:45:14;17.70;61.40
74294;DHT22;64044;59.904;10.738;2023-07-28T04:47:40;17.70;61.40
74294;DHT22;64044;59.904;10.738;2023-07-28T04:50:06;17.70;61.40
74294;DHT22;64044;59.904;10.738;2023-07-28T04:52:31;17.70;61.40
74294;DHT22;64044;59.904;10.738;2023-07-28T04:54:57;17.70;61.40
74294;DHT22;64044;59.904;10.738;2023-07-28T04:57:23;17.70;61.50
74294;DHT22;64044;59.904;10.738;2023-07-28T04:59:48;17.70;61.50
74294;DHT22;64044;59.904;10.738;2023-07-28T05:02:14;17.70;61.50
74294;DHT22;64044;59.904;10.738;2023-07-28T05:04:40;17.70;61.50
74294;DHT22;64044;59.904;10.738;2023-07-28T05:07:06;17.70;61.50
74294;DHT22;64044;59.904;10.738;2023-07-28T05:09:31;17.80;61.60
74294;DHT22;64044;59.904;10.738;2023-07-28T05:11:57;17.80;61.70
74294;DHT22;64044;59.904;10.738;2023-07-28T05:14:23;17.80;61.70
74294;DHT22;64044;59.904;10.738;2023-07-28T05:16:59;17.80;61.70
74294;DHT22;64044;59.904;10.738;2023-07-28T05:19:24;17.80;61.90
74294;DHT22;64044;59.904;10.738;2023-07-28T05:21:50;17.80;62.00
74294;DHT22;64044;59.904;10.738;2023-07-28T05:24:16;17.90;62.20
74294;DHT22;64044;59.904;10.738;2023-07-28T05:26:41;17.90;62.40
74294;DHT22;64044;59.904;10.738;2023-07-28T05:29:07;17.90;62.40
74294;DHT22;64044;59.904;10.738;2023-07-28T05:31:32;17.90;62.50
74294;DHT22;64044;59.904;10.738;2023-07-28T05:33:58;18.00;62.60
74294;DHT22;64044;59.904;10.738;2023-07-28T05:36:24;18.00;62.70
74294;DHT22;64044;59.904;10.738;2023-07-28T05:38:49;18.10;62.90
74294;DHT22;64044;59.904;10.738;2023-07-28T05:41:16;18.10;62.80
74294;DHT22;64044;59.904;10.738;2023-07-28T05:43:42;18.10;63.00
74294;DHT22;64044;59.904;10.738;2023-07-28T05:46:07;18.20;63.20
74294;DHT22;64044;59.904;10.738;2023-07-28T05:48:33;18.20;62.90
74294;DHT22;64044;59.904;10.738;2023-07-28T05:50:59;18.20;62.60
74294;DHT22;64044;59.904;10.738;2023-07-28T05:53:24;18.30;62.60
74294;DHT22;64044;59.904;10.738;2023-07-28T05:55:50;18.40;62.70
74294;DHT22;64044;59.904;10.738;2023-07-28T05:58:16;18.40;62.30
74294;DHT22;64044;59.904;10.738;2023-07-28T06:00:42;18.40;62.00
74294;DHT22;64044;59.904;10.738;2023-07-28T06:03:10;18.50;61.90
74294;DHT22;64044;59.904;10.738;2023-07-28T06:05:39;18.50;61.70
74294;DHT22;64044;59.904;10.738;2023-07-28T06:08:06;18.50;61.40
74294;DHT22;64044;59.904;10.738;2023-07-28T06:10:31;18.60;61.40
74294;DHT22;64044;59.904;10.738;2023-07-28T06:12:58;18.60;61.30
74294;DHT22;64044;59.904;10.738;2023-07-28T06:15:23;18.60;61.30
74294;DHT22;64044;59.904;10.738;2023-07-28T06:17:49;18.60;61.40
74294;DHT22;64044;59.904;10.738;2023-07-28T06:20:15;18.60;61.30
74294;DHT22;64044;59.904;10.738;2023-07-28T06:22:41;18.60;61.40
74294;DHT22;64044;59.904;10.738;2023-07-28T06:25:07;18.60;61.90
74294;DHT22;64044;59.904;10.738;2023-07-28T06:27:32;18.60;61.80
74294;DHT22;64044;59.904;10.738;2023-07-28T06:29:58;18.60;62.30
74294;DHT22;64044;59.904;10.738;2023-07-28T06:32:24;18.60;62.30
74294;DHT22;64044;59.904;10.738;2023-07-28T06:34:50;18.60;62.50
74294;DHT22;64044;59.904;10.738;2023-07-28T06:37:17;18.50;62.40
74294;DHT22;64044;59.904;10.738;2023-07-28T06:39:42;18.50;62.80
74294;DHT22;64044;59.904;10.738;2023-07-28T06:42:08;18.50;62.90
74294;DHT22;64044;59.904;10.738;2023-07-28T06:44:34;18.50;62.70
74294;DHT22;64044;59.904;10.738;2023-07-28T06:46:59;18.50;62.90
74294;DHT22;64044;59.904;10.738;2023-07-28T06:49:25;18.50;62.80
74294;DHT22;64044;59.904;10.738;2023-07-28T06:51:51;18.50;62.80
74294;DHT22;64044;59.904;10.738;2023-07-28T06:54:16;18.50;62.90
74294;DHT22;64044;59.904;10.738;2023-07-28T06:56:42;18.50;63.00
74294;DHT22;64044;59.904;10.738;2023-07-28T06:59:08;18.60;63.40
74294;DHT22;64044;59.904;10.738;2023-07-28T07:01:34;18.60;63.20
74294;DHT22;64044;59.904;10.738;2023-07-28T07:04:00;18.60;63.30
74294;DHT22;64044;59.904;10.738;2023-07-28T07:06:26;18.70;63.70
74294;DHT22;64044;59.904;10.738;2023-07-28T07:08:52;18.70;63.70
74294;DHT22;64044;59.904;10.738;2023-07-28T07:11:18;18.70;63.90
74294;DHT22;64044;59.904;10.738;2023-07-28T07:13:43;18.70;63.70
74294;DHT22;64044;59.904;10.738;2023-07-28T07:16:16;18.80;63.50
74294;DHT22;64044;59.904;10.738;2023-07-28T07:18:43;18.80;64.10
74294;DHT22;64044;59.904;10.738;2023-07-28T07:21:09;18.90;63.30
74294;DHT22;64044;59.904;10.738;2023-07-28T07:23:35;18.90;63.20
74294;DHT22;64044;59.904;10.738;2023-07-28T07:26:01;19.00;63.20
74294;DHT22;64044;59.904;10.738;2023-07-28T07:28:27;19.00;63.20
74294;DHT22;64044;59.904;10.738;2023-07-28T07:30:56;19.00;62.60
74294;DHT22;64044;59.904;10.738;2023-07-28T07:33:23;19.00;62.30
74294;DHT22;64044;59.904;10.738;2023-07-28T07:35:48;19.10;62.10
74294;DHT22;64044;59.904;10.738;2023-07-28T07:38:14;19.10;62.00
74294;DHT22;64044;59.904;10.738;2023-07-28T07:40:40;19.10;61.90
74294;DHT22;64044;59.904;10.738;2023-07-28T07:43:05;19.10;61.90
74294;DHT22;64044;59.904;10.738;2023-07-28T07:45:31;19.20;62.30
74294;DHT22;64044;59.904;10.738;2023-07-28T07:47:58;19.20;62.00
74294;DHT22;64044;59.904;10.738;2023-07-28T07:50:24;19.20;61.70
74294;DHT22;64044;59.904;10.738;2023-07-28T07:52:49;19.30;61.50
74294;DHT22;64044;59.904;10.738;2023-07-28T07:55:15;19.30;61.50
74294;DHT22;64044;59.904;10.738;2023-07-28T07:57:41;19.30;61.00
74294;DHT22;64044;59.904;10.738;2023-07-28T08:00:08;19.40;60.70
74294;DHT22;64044;59.904;10.738;2023-07-28T08:02:34;19.40;60.90
74294;DHT22;64044;59.904;10.738;2023-07-28T08:05:00;19.40;60.50
74294;DHT22;64044;59.904;10.738;2023-07-28T08:07:26;19.40;60.20
74294;DHT22;64044;59.904;10.738;2023-07-28T08:09:52;19.40;60.20
74294;DHT22;64044;59.904;10.738;2023-07-28T08:12:18;19.50;60.30
74294;DHT22;64044;59.904;10.738;2023-07-28T08:14:43;19.50;59.90
74294;DHT22;64044;59.904;10.738;2023-07-28T08:17:11;19.50;59.90
74294;DHT22;64044;59.904;10.738;2023-07-28T08:19:37;19.50;60.20
74294;DHT22;64044;59.904;10.738;2023-07-28T08:22:02;19.50;59.60
74294;DHT22;64044;59.904;10.738;2023-07-28T08:24:29;19.50;59.30
74294;DHT22;64044;59.904;10.738;2023-07-28T08:26:55;19.50;59.50
74294;DHT22;64044;59.904;10.738;2023-07-28T08:29:21;19.50;59.80
74294;DHT22;64044;59.904;10.738;2023-07-28T08:31:51;19.50;60.10
74294;DHT22;64044;59.904;10.738;2023-07-28T08:34:16;19.50;60.20
74294;DHT22;64044;59.904;10.738;2023-07-28T08:36:43;19.50;59.90
74294;DHT22;64044;59.904;10.738;2023-07-28T08:39:09;19.50;59.80
74294;DHT22;64044;59.904;10.738;2023-07-28T08:41:35;19.50;60.00
74294;DHT22;64044;59.904;10.738;2023-07-28T08:44:02;19.50;60.20
74294;DHT22;64044;59.904;10.738;2023-07-28T08:46:27;19.50;59.80
74294;DHT22;64044;59.904;10.738;2023-07-28T08:48:57;19.50;60.10
74294;DHT22;64044;59.904;10.738;2023-07-28T08:51:23;19.60;60.70
74294;DHT22;64044;59.904;10.738;2023-07-28T08:53:52;19.60;60.00
74294;DHT22;64044;59.904;10.738;2023-07-28T08:56:18;19.60;61.00
74294;DHT22;64044;59.904;10.738;2023-07-28T08:58:44;19.60;60.50
74294;DHT22;64044;59.904;10.738;2023-07-28T09:01:11;19.60;60.50
74294;DHT22;64044;59.904;10.738;2023-07-28T09:03:40;19.60;60.50
74294;DHT22;64044;59.904;10.738;2023-07-28T09:06:07;19.60;60.70
74294;DHT22;64044;59.904;10.738;2023-07-28T09:08:36;19.70;60.60
74294;DHT22;64044;59.904;10.738;2023-07-28T09:11:03;19.80;61.40
74294;DHT22;64044;59.904;10.738;2023-07-28T09:13:41;19.80;60.50
74294;DHT22;64044;59.904;10.738;2023-07-28T09:16:25;19.80;60.60
74294;DHT22;64044;59.904;10.738;2023-07-28T09:19:04;19.90;62.00
74294;DHT22;64044;59.904;10.738;2023-07-28T09:21:31;20.00;61.00
74294;DHT22;64044;59.904;10.738;2023-07-28T09:24:00;20.00;60.50
74294;DHT22;64044;59.904;10.738;2023-07-28T09:26:39;20.00;60.10
74294;DHT22;64044;59.904;10.738;2023-07-28T09:29:20;20.00;59.80
74294;DHT22;64044;59.904;10.738;2023-07-28T09:31:47;20.10;60.30
74294;DHT22;64044;59.904;10.738;2023-07-28T09:34:26;20.10;59.90
74294;DHT22;64044;59.904;10.738;2023-07-28T09:36:56;20.10;60.40
74294;DHT22;64044;59.904;10.738;2023-07-28T09:39:22;20.00;59.90
74294;DHT22;64044;59.904;10.738;2023-07-28T09:41:48;20.00;60.00
74294;DHT22;64044;59.904;10.738;2023-07-28T09:44:14;19.90;60.50
74294;DHT22;64044;59.904;10.738;2023-07-28T09:46:54;19.90;60.20
74294;DHT22;64044;59.904;10.738;2023-07-28T09:49:41;19.90;62.20
74294;DHT22;64044;59.904;10.738;2023-07-28T09:52:12;19.90;61.70
74294;DHT22;64044;59.904;10.738;2023-07-28T09:54:40;19.90;61.00
74294;DHT22;64044;59.904;10.738;2023-07-28T09:57:11;19.90;61.50
74294;DHT22;64044;59.904;10.738;2023-07-28T09:59:39;19.90;61.40
74294;DHT22;64044;59.904;10.738;2023-07-28T10:02:05;20.00;61.10
74294;DHT22;64044;59.904;10.738;2023-07-28T10:04:32;20.00;61.00
74294;DHT22;64044;59.904;10.738;2023-07-28T10:06:58;20.00;61.10
74294;DHT22;64044;59.904;10.738;2023-07-28T10:09:26;20.10;60.70
74294;DHT22;64044;59.904;10.738;2023-07-28T10:11:53;20.20;60.70
74294;DHT22;64044;59.904;10.738;2023-07-28T10:14:35;20.20;61.10
74294;DHT22;64044;59.904;10.738;2023-07-28T10:17:04;20.30;60.90
74294;DHT22;64044;59.904;10.738;2023-07-28T10:19:36;20.40;60.50
74294;DHT22;64044;59.904;10.738;2023-07-28T10:22:11;20.50;60.40
74294;DHT22;64044;59.904;10.738;2023-07-28T10:24:50;20.60;60.00
74294;DHT22;64044;59.904;10.738;2023-07-28T10:27:36;20.70;60.30
74294;DHT22;64044;59.904;10.738;2023-07-28T10:30:10;20.90;60.70
74294;DHT22;64044;59.904;10.738;2023-07-28T10:32:48;21.00;60.30
74294;DHT22;64044;59.904;10.738;2023-07-28T10:37:47;21.10;59.90
74294;DHT22;64044;59.904;10.738;2023-07-28T10:40:33;21.20;59.50
74294;DHT22;64044;59.904;10.738;2023-07-28T10:43:04;21.20;59.50
74294;DHT22;64044;59.904;10.738;2023-07-28T10:45:31;21.20;58.90
74294;DHT22;64044;59.904;10.738;2023-07-28T10:47:59;21.20;59.30
74294;DHT22;64044;59.904;10.738;2023-07-28T10:50:31;21.30;59.10
74294;DHT22;64044;59.904;10.738;2023-07-28T10:52:57;21.30;58.90
74294;DHT22;64044;59.904;10.738;2023-07-28T10:55:25;21.30;58.70
74294;DHT22;64044;59.904;10.738;2023-07-28T10:57:53;21.40;58.80
74294;DHT22;64044;59.904;10.738;2023-07-28T11:00:20;21.40;58.90
74294;DHT22;64044;59.904;10.738;2023-07-28T11:02:53;21.50;58.30
74294;DHT22;64044;59.904;10.738;2023-07-28T11:05:25;21.50;58.50
74294;DHT22;64044;59.904;10.738;2023-07-28T11:07:54;21.60;58.40
74294;DHT22;64044;59.904;10.738;2023-07-28T11:10:20;21.60;58.00
74294;DHT22;64044;59.904;10.738;2023-07-28T11:12:48;21.60;57.90
74294;DHT22;64044;59.904;10.738;2023-07-28T11:15:15;21.70;57.60
74294;DHT22;64044;59.904;10.738;2023-07-28T11:17:47;21.80;57.30
74294;DHT22;64044;59.904;10.738;2023-07-28T11:20:32;21.80;57.40
74294;DHT22;64044;59.904;10.738;2023-07-28T11:23:00;21.90;57.60
74294;DHT22;64044;59.904;10.738;2023-07-28T11:25:28;22.00;57.40
74294;DHT22;64044;59.904;10.738;2023-07-28T11:27:55;22.10;57.40
74294;DHT22;64044;59.904;10.738;2023-07-28T11:30:21;22.20;57.20
74294;DHT22;64044;59.904;10.738;2023-07-28T11:32:51;22.30;57.00
74294;DHT22;64044;59.904;10.738;2023-07-28T11:35:19;22.40;56.70
74294;DHT22;64044;59.904;10.738;2023-07-28T11:37:52;22.50;56.10
74294;DHT22;64044;59.904;10.738;2023-07-28T11:40:20;22.60;55.40
74294;DHT22;64044;59.904;10.738;2023-07-28T11:42:54;22.70;55.70
74294;DHT22;64044;59.904;10.738;2023-07-28T11:45:21;22.80;55.00
74294;DHT22;64044;59.904;10.738;2023-07-28T11:48:00;22.90;55.00
74294;DHT22;64044;59.904;10.738;2023-07-28T11:50:27;23.00;54.40
74294;DHT22;64044;59.904;10.738;2023-07-28T11:52:54;23.20;55.40
74294;DHT22;64044;59.904;10.738;2023-07-28T11:55:21;23.30;55.50
74294;DHT22;64044;59.904;10.738;2023-07-28T11:57:48;23.50;55.30
74294;DHT22;64044;59.904;10.738;2023-07-28T12:00:14;23.70;55.60
74294;DHT22;64044;59.904;10.738;2023-07-28T12:02:44;23.80;55.10
74294;DHT22;64044;59.904;10.738;2023-07-28T12:05:16;24.00;54.90
74294;DHT22;64044;59.904;10.738;2023-07-28T12:07:48;24.10;54.30
74294;DHT22;64044;59.904;10.738;2023-07-28T12:10:14;24.30;53.90
74294;DHT22;64044;59.904;10.738;2023-07-28T12:12:42;24.50;53.90
74294;DHT22;64044;59.904;10.738;2023-07-28T12:15:28;24.60;53.40
74294;DHT22;64044;59.904;10.738;2023-07-28T12:18:08;24.80;53.00
74294;DHT22;64044;59.904;10.738;2023-07-28T12:20:41;25.00;52.20
74294;DHT22;64044;59.904;10.738;2023-07-28T12:23:08;25.40;51.40
74294;DHT22;64044;59.904;10.738;2023-07-28T12:25:36;25.60;52.00
74294;DHT22;64044;59.904;10.738;2023-07-28T12:28:02;25.80;51.60
74294;DHT22;64044;59.904;10.738;2023-07-28T12:30:28;26.10;51.00
74294;DHT22;64044;59.904;10.738;2023-07-28T12:32:54;26.30;50.40
74294;DHT22;64044;59.904;10.738;2023-07-28T12:35:22;26.50;49.90
74294;DHT22;64044;59.904;10.738;2023-07-28T12:37:57;26.60;49.60
74294;DHT22;64044;59.904;10.738;2023-07-28T12:40:22;26.90;49.30
74294;DHT22;64044;59.904;10.738;2023-07-28T12:42:49;27.10;49.00
74294;DHT22;64044;59.904;10.738;2023-07-28T12:45:15;27.30;47.90
74294;DHT22;64044;59.904;10.738;2023-07-28T12:47:43;27.50;47.10
74294;DHT22;64044;59.904;10.738;2023-07-28T12:50:09;27.60;46.80
74294;DHT22;64044;59.904;10.738;2023-07-28T12:52:36;27.80;46.20
74294;DHT22;64044;59.904;10.738;2023-07-28T12:55:02;28.00;45.40
74294;DHT22;64044;59.904;10.738;2023-07-28T12:57:28;28.20;45.40
74294;DHT22;64044;59.904;10.738;2023-07-28T12:59:54;28.50;45.00
74294;DHT22;64044;59.904;10.738;2023-07-28T13:02:19;28.80;44.40
74294;DHT22;64044;59.904;10.738;2023-07-28T13:04:45;29.00;43.90
74294;DHT22;64044;59.904;10.738;2023-07-28T13:07:11;29.40;43.80
74294;DHT22;64044;59.904;10.738;2023-07-28T13:09:37;29.70;40.60
74294;DHT22;64044;59.904;10.738;2023-07-28T13:12:03;30.10;38.90
74294;DHT22;64044;59.904;10.738;2023-07-28T13:14:28;30.40;38.80
74294;DHT22;64044;59.904;10.738;2023-07-28T13:16:54;30.70;37.80
74294;DHT22;64044;59.904;10.738;2023-07-28T13:19:20;30.90;37.20
74294;DHT22;64044;59.904;10.738;2023-07-28T13:21:45;31.20;36.30
74294;DHT22;64044;59.904;10.738;2023-07-28T13:24:11;31.50;35.10
74294;DHT22;64044;59.904;10.738;2023-07-28T13:26:37;31.80;35.00
74294;DHT22;64044;59.904;10.738;2023-07-28T13:29:02;32.00;34.70
74294;DHT22;64044;59.904;10.738;2023-07-28T13:31:32;32.30;34.00
74294;DHT22;64044;59.904;10.738;2023-07-28T13:33:58;32.60;34.10
74294;DHT22;64044;59.904;10.738;2023-07-28T13:36:23;32.90;33.70
74294;DHT22;64044;59.904;10.738;2023-07-28T13:38:49;33.20;32.90
74294;DHT22;64044;59.904;10.738;2023-07-28T13:41:15;33.50;32.80
74294;DHT22;64044;59.904;10.738;2023-07-28T13:43:41;33.90;32.90
74294;DHT22;64044;59.904;10.738;2023-07-28T13:46:07;34.30;32.90
74294;DHT22;64044;59.904;10.738;2023-07-28T13:48:33;34.70;31.60
74294;DHT22;64044;59.904;10.738;2023-07-28T13:50:59;35.00;30.90
74294;DHT22;64044;59.904;10.738;2023-07-28T13:53:25;35.40;31.10
74294;DHT22;64044;59.904;10.738;2023-07-28T13:55:51;35.80;31.30
74294;DHT22;64044;59.904;10.738;2023-07-28T13:58:17;36.10;30.00
74294;DHT22;64044;59.904;10.738;2023-07-28T14:00:42;36.30;29.70
74294;DHT22;64044;59.904;10.738;2023-07-28T14:03:08;36.60;29.20
74294;DHT22;64044;59.904;10.738;2023-07-28T14:05:35;36.90;28.60
74294;DHT22;64044;59.904;10.738;2023-07-28T14:08:01;37.00;28.10
74294;DHT22;64044;59.904;10.738;2023-07-28T14:10:26;37.20;28.00
74294;DHT22;64044;59.904;10.738;2023-07-28T14:12:52;37.30;27.80
74294;DHT22;64044;59.904;10.738;2023-07-28T14:15:18;37.40;27.40
74294;DHT22;64044;59.904;10.738;2023-07-28T14:17:44;37.50;27.30
74294;DHT22;64044;59.904;10.738;2023-07-28T14:20:10;37.60;26.80
74294;DHT22;64044;59.904;10.738;2023-07-28T14:22:35;37.60;26.60
74294;DHT22;64044;59.904;10.738;2023-07-28T14:25:01;37.60;26.50
74294;DHT22;64044;59.904;10.738;2023-07-28T14:27:27;37.50;26.30
74294;DHT22;64044;59.904;10.738;2023-07-28T14:29:52;37.50;26.00
74294;DHT22;64044;59.904;10.738;2023-07-28T14:32:18;37.50;26.10
74294;DHT22;64044;59.904;10.738;2023-07-28T14:34:44;37.50;25.80
74294;DHT22;64044;59.904;10.738;2023-07-28T14:37:09;37.40;25.70
74294;DHT22;64044;59.904;10.738;2023-07-28T14:39:36;37.40;25.60
74294;DHT22;64044;59.904;10.738;2023-07-28T14:42:02;37.50;25.60
74294;DHT22;64044;59.904;10.738;2023-07-28T14:44:28;37.50;25.30
74294;DHT22;64044;59.904;10.738;2023-07-28T14:46:54;37.50;25.40
74294;DHT22;64044;59.904;10.738;2023-07-28T14:49:20;37.50;25.30
74294;DHT22;64044;59.904;10.738;2023-07-28T14:51:46;37.50;25.40
74294;DHT22;64044;59.904;10.738;2023-07-28T14:54:12;37.40;25.40
74294;DHT22;64044;59.904;10.738;2023-07-28T14:56:37;37.40;25.50
74294;DHT22;64044;59.904;10.738;2023-07-28T14:59:03;37.40;25.30
74294;DHT22;64044;59.904;10.738;2023-07-28T15:01:30;37.40;25.40
74294;DHT22;64044;59.904;10.738;2023-07-28T15:03:56;37.50;25.40
74294;DHT22;64044;59.904;10.738;2023-07-28T15:06:22;37.50;25.60
74294;DHT22;64044;59.904;10.738;2023-07-28T15:08:48;37.60;26.10
74294;DHT22;64044;59.904;10.738;2023-07-28T15:11:14;37.60;25.70
74294;DHT22;64044;59.904;10.738;2023-07-28T15:13:41;37.60;25.90
74294;DHT22;64044;59.904;10.738;2023-07-28T15:16:06;37.70;25.80
74294;DHT22;64044;59.904;10.738;2023-07-28T15:18:32;37.80;25.90
74294;DHT22;64044;59.904;10.738;2023-07-28T15:20:58;37.80;26.00
74294;DHT22;64044;59.904;10.738;2023-07-28T15:23:25;37.80;26.00
74294;DHT22;64044;59.904;10.738;2023-07-28T15:25:52;37.80;25.80